createdAt,value
2024-02-14T00:00:52.701Z,91153.03
2024-02-14T00:03:19.922Z,91157.34
2024-02-14T00:05:46.647Z,91154.47
2024-02-14T00:08:16.023Z,91163.03
2024-02-14T00:10:44.670Z,91163.88
2024-02-14T00:13:11.996Z,91165.38
2024-02-14T00:15:38.754Z,91160.72
2024-02-14T00:18:05.866Z,91152.88
2024-02-14T00:20:33.724Z,91171.78
2024-02-14T00:23:00.524Z,91166.44
2024-02-14T00:25:27.193Z,91167.97
2024-02-14T00:27:55.345Z,91169.50
2024-02-14T00:30:24.248Z,91174.66
2024-02-14T00:32:51.613Z,91171.78
2024-02-14T00:35:18.515Z,91175.72
2024-02-14T00:37:45.294Z,91168.91
2024-02-14T00:40:12.644Z,91173.63
2024-02-14T00:42:39.335Z,91171.00
2024-02-14T00:45:09.122Z,91176.38
2024-02-14T00:47:36.449Z,91175.53
2024-02-14T00:50:04.068Z,91174.28
2024-02-14T00:52:30.955Z,91164.69
2024-02-14T00:54:58.397Z,91170.84
2024-02-14T00:57:28.016Z,91168.44
2024-02-14T00:59:54.756Z,91174.19
2024-02-14T01:02:22.509Z,91168.63
2024-02-14T01:04:49.254Z,91172.28
2024-02-14T01:07:15.926Z,91172.97
2024-02-14T01:09:42.720Z,91171.00
2024-02-14T01:12:09.532Z,91181.59
2024-02-14T01:14:36.324Z,91172.84
2024-02-14T01:17:04.899Z,91178.50
2024-02-14T01:19:31.781Z,91188.13
2024-02-14T01:21:58.451Z,91180.81
2024-02-14T01:24:28.059Z,91182.06
2024-02-14T01:26:56.340Z,91177.94
2024-02-14T01:29:24.429Z,91180.47
2024-02-14T01:31:51.528Z,91177.09
2024-02-14T01:34:18.677Z,91183.16
2024-02-14T01:36:45.722Z,91185.19
2024-02-14T01:39:12.609Z,91179.66
2024-02-14T01:41:39.870Z,91187.59
2024-02-14T01:44:06.622Z,91181.88
2024-02-14T01:46:33.399Z,91181.31
2024-02-14T01:49:00.454Z,91181.56
2024-02-14T01:51:27.375Z,91187.63
2024-02-14T01:53:54.249Z,91180.84
2024-02-14T01:56:21.023Z,91189.66
2024-02-14T01:58:47.716Z,91186.63
2024-02-14T02:01:14.486Z,91193.53
2024-02-14T02:03:41.234Z,91186.81
2024-02-14T02:06:08.260Z,91192.75
2024-02-14T02:08:35.181Z,91190.94
2024-02-14T02:11:01.889Z,91190.16
2024-02-14T02:13:28.702Z,91188.63
2024-02-14T02:15:55.416Z,91184.41
2024-02-14T02:18:22.434Z,91185.53
2024-02-14T02:20:49.468Z,91198.44
2024-02-14T02:23:16.375Z,91194.84
2024-02-14T02:25:43.722Z,91202.88
2024-02-14T02:28:10.583Z,91206.22
2024-02-14T02:30:37.740Z,91218.16
2024-02-14T02:33:05.588Z,91216.06
2024-02-14T02:35:32.375Z,91217.09
2024-02-14T02:37:59.190Z,91229.31
2024-02-14T02:40:26.264Z,91214.47
2024-02-14T02:42:53.016Z,91219.47
2024-02-14T02:45:19.843Z,91221.59
2024-02-14T02:47:46.632Z,91215.09
2024-02-14T02:50:13.438Z,91216.59
2024-02-14T02:52:43.107Z,91217.47
2024-02-14T02:55:10.077Z,91221.06
2024-02-14T02:57:38.156Z,91223.28
2024-02-14T03:00:06.214Z,91225.91
2024-02-14T03:02:33.074Z,91221.31
2024-02-14T03:05:00.209Z,91225.97
2024-02-14T03:07:27.857Z,91227.53
2024-02-14T03:09:54.499Z,91228.63
2024-02-14T03:12:22.757Z,91227.91
2024-02-14T03:14:50.793Z,91229.09
2024-02-14T03:17:17.995Z,91231.03
2024-02-14T03:19:44.782Z,91230.28
2024-02-14T03:22:11.614Z,91231.59
2024-02-14T03:24:38.884Z,91230.66
2024-02-14T03:27:06.608Z,91238.09
2024-02-14T03:29:33.669Z,91240.09
2024-02-14T03:32:05.314Z,91237.56
2024-02-14T03:34:34.988Z,91242.22
2024-02-14T03:37:03.377Z,91253.38
2024-02-14T03:39:30.855Z,91255.25
2024-02-14T03:41:57.684Z,91253.44
2024-02-14T03:44:24.473Z,91260.94
2024-02-14T03:46:51.300Z,91261.44
2024-02-14T03:49:18.412Z,91261.94
2024-02-14T03:51:45.253Z,91269.78
2024-02-14T03:54:13.213Z,91265.50
2024-02-14T03:56:40.052Z,91261.38
2024-02-14T03:59:07.257Z,91270.22
2024-02-14T04:01:34.302Z,91269.66
2024-02-14T04:04:01.128Z,91276.06
2024-02-14T04:06:28.360Z,91286.03
2024-02-14T04:08:55.289Z,91283.38
2024-02-14T04:11:22.091Z,91300.16
2024-02-14T04:13:48.743Z,91288.59
2024-02-14T04:16:15.360Z,91286.72
2024-02-14T04:18:43.965Z,91294.56
2024-02-14T04:21:11.226Z,91295.13
2024-02-14T04:23:38.203Z,91296.22
2024-02-14T04:26:05.090Z,91298.16
2024-02-14T04:28:31.726Z,91301.31
2024-02-14T04:30:59.007Z,91291.25
2024-02-14T04:33:26.824Z,91294.56
2024-02-14T04:35:53.613Z,91298.16
2024-02-14T04:38:20.975Z,91298.66
2024-02-14T04:40:47.863Z,91296.38
2024-02-14T04:43:14.623Z,91307.28
2024-02-14T04:45:41.404Z,91304.16
2024-02-14T04:48:09.060Z,91311.69
2024-02-14T04:50:36.113Z,91312.94
2024-02-14T04:53:02.851Z,91312.88
2024-02-14T04:55:30.487Z,91307.75
2024-02-14T04:57:57.248Z,91317.31
2024-02-14T05:00:25.160Z,91315.22
2024-02-14T05:02:52.243Z,91312.59
2024-02-14T05:05:21.542Z,91314.69
2024-02-14T05:07:48.441Z,91334.28
2024-02-14T05:10:15.196Z,91327.84
2024-02-14T05:12:42.573Z,91333.03
2024-02-14T05:15:10.750Z,91340.31
2024-02-14T05:17:37.722Z,91348.38
2024-02-14T05:20:10.318Z,91337.19
2024-02-14T05:22:38.850Z,91347.47
2024-02-14T05:25:06.154Z,91351.53
2024-02-14T05:27:32.885Z,91350.50
2024-02-14T05:29:59.611Z,91352.59
2024-02-14T05:32:26.394Z,91356.09
2024-02-14T05:34:53.125Z,91354.69
2024-02-14T05:37:19.896Z,91368.63
2024-02-14T05:39:46.634Z,91364.38
2024-02-14T05:42:13.472Z,91369.25
2024-02-14T05:44:41.628Z,91383.22
2024-02-14T05:47:08.455Z,91396.25
2024-02-14T05:49:35.318Z,91406.06
2024-02-14T05:52:02.113Z,91395.59
2024-02-14T05:54:28.855Z,91403.00
2024-02-14T05:56:55.595Z,91408.19
2024-02-14T05:59:22.413Z,91402.38
2024-02-14T06:01:49.049Z,91400.41
2024-02-14T06:04:15.826Z,91411.38
2024-02-14T06:06:42.559Z,91405.41
2024-02-14T06:09:12.718Z,91413.06
2024-02-14T06:11:40.342Z,91411.84
2024-02-14T06:14:07.894Z,91415.97
2024-02-14T06:16:34.812Z,91406.16
2024-02-14T06:19:02.147Z,91414.38
2024-02-14T06:21:28.938Z,91413.13
2024-02-14T06:23:56.060Z,91419.34
2024-02-14T06:26:22.796Z,91431.53
2024-02-14T06:28:55.343Z,91430.25
2024-02-14T06:31:23.391Z,91434.41
2024-02-14T06:33:50.309Z,91430.53
2024-02-14T06:36:17.167Z,91432.38
2024-02-14T06:38:44.609Z,91434.44
2024-02-14T06:41:11.477Z,91434.72
2024-02-14T06:43:40.270Z,91440.91
2024-02-14T06:46:07.257Z,91447.41
2024-02-14T06:48:35.309Z,91444.50
2024-02-14T06:51:02.307Z,91451.25
2024-02-14T06:53:29.206Z,91453.56
2024-02-14T06:55:55.895Z,91453.25
2024-02-14T06:58:22.772Z,91457.75
2024-02-14T07:00:49.513Z,91468.66
2024-02-14T07:03:16.482Z,91462.50
2024-02-14T07:05:43.462Z,91459.38
2024-02-14T07:08:10.374Z,91460.97
2024-02-14T07:10:37.425Z,91456.69
2024-02-14T07:13:04.454Z,91462.97
2024-02-14T07:15:31.211Z,91468.56
2024-02-14T07:17:59.711Z,91469.06
2024-02-14T07:20:27.976Z,91469.69
2024-02-14T07:22:54.755Z,91478.25
2024-02-14T07:25:21.495Z,91476.50
2024-02-14T07:27:50.596Z,91475.75
2024-02-14T07:30:18.235Z,91479.16
2024-02-14T07:32:48.136Z,91480.22
2024-02-14T07:35:14.977Z,91482.28
2024-02-14T07:37:43.458Z,91483.81
2024-02-14T07:40:11.340Z,91481.22
2024-02-14T07:42:38.038Z,91488.16
2024-02-14T07:45:05.258Z,91483.19
2024-02-14T07:47:32.165Z,91496.38
2024-02-14T07:49:59.539Z,91497.94
2024-02-14T07:52:27.166Z,91499.22
2024-02-14T07:54:55.335Z,91500.25
2024-02-14T07:57:23.556Z,91499.16
2024-02-14T07:59:51.822Z,91503.06
2024-02-14T08:02:19.181Z,91509.22
2024-02-14T08:04:45.908Z,91512.00
2024-02-14T08:07:12.700Z,91501.78
2024-02-14T08:09:42.168Z,91500.44
2024-02-14T08:12:08.937Z,91495.28
2024-02-14T08:14:35.797Z,91511.16
2024-02-14T08:17:02.627Z,91508.22
2024-02-14T08:19:29.525Z,91516.59
2024-02-14T08:21:59.125Z,91514.78
2024-02-14T08:24:27.269Z,91515.06
2024-02-14T08:26:54.500Z,91523.44
2024-02-14T08:29:21.927Z,91523.44
2024-02-14T08:31:49.111Z,91529.94
2024-02-14T08:34:16.104Z,91527.06
2024-02-14T08:36:43.652Z,91523.41
2024-02-14T08:39:13.368Z,91530.19
2024-02-14T08:41:42.273Z,91530.72
2024-02-14T08:44:09.000Z,91533.88
2024-02-14T08:46:35.699Z,91532.03
2024-02-14T08:49:03.845Z,91528.66
2024-02-14T08:51:30.844Z,91523.44
2024-02-14T08:54:00.659Z,91524.97
2024-02-14T08:56:27.675Z,91534.53
2024-02-14T08:58:54.372Z,91535.13
2024-02-14T09:01:23.078Z,91548.88
2024-02-14T09:03:50.903Z,91551.50
2024-02-14T09:06:21.120Z,91550.50
2024-02-14T09:08:48.398Z,91550.50
2024-02-14T09:11:15.252Z,91556.72
2024-02-14T09:13:42.100Z,91549.13
2024-02-14T09:16:09.627Z,91557.22
2024-02-14T09:18:36.564Z,91556.44
2024-02-14T09:21:06.559Z,91561.59
2024-02-14T09:23:34.189Z,91562.19
2024-02-14T09:26:00.970Z,91565.81
2024-02-14T09:28:27.685Z,91574.88
2024-02-14T09:30:55.939Z,91572.78
2024-02-14T09:33:23.130Z,91565.56
2024-02-14T09:35:51.566Z,91572.78
2024-02-14T09:38:18.301Z,91565.75
2024-02-14T09:40:45.128Z,91568.59
2024-02-14T09:43:19.809Z,91578.50
2024-02-14T09:45:46.429Z,91574.88
2024-02-14T09:48:14.197Z,91576.44
2024-02-14T09:50:41.544Z,91562.94
2024-02-14T09:53:10.148Z,91565.03
2024-02-14T09:55:39.732Z,91562.94
2024-02-14T09:58:07.868Z,91565.03
2024-02-14T10:00:34.762Z,91558.53
2024-02-14T10:03:04.582Z,91556.72
2024-02-14T10:05:31.306Z,91556.72
2024-02-14T10:07:58.724Z,91554.16
2024-02-14T10:10:26.341Z,91562.44
2024-02-14T10:12:53.244Z,91570.25
2024-02-14T10:15:20.060Z,91566.84
2024-02-14T10:17:46.856Z,91552.84
2024-02-14T10:20:18.126Z,91566.06
2024-02-14T10:22:45.635Z,91564.00
2024-02-14T10:25:12.960Z,91566.59
2024-02-14T10:27:40.020Z,91559.06
2024-02-14T10:30:10.982Z,91558.03
2024-02-14T10:32:38.813Z,91561.41
2024-02-14T10:35:10.238Z,91567.63
2024-02-14T10:37:37.476Z,91564.50
2024-02-14T10:40:05.350Z,91558.78
2024-02-14T10:42:32.633Z,91565.06
2024-02-14T10:45:00.397Z,91555.69
2024-02-14T10:47:36.959Z,91562.44
2024-02-14T10:50:06.430Z,91560.59
2024-02-14T10:52:36.948Z,91564.78
2024-02-14T10:55:06.891Z,91566.06
2024-02-14T10:57:33.751Z,91561.91
2024-02-14T11:00:06.265Z,91562.94
2024-02-14T11:02:33.978Z,91562.84
2024-02-14T11:05:01.792Z,91564.94
2024-02-14T11:07:29.862Z,91561.31
2024-02-14T11:10:10.954Z,91564.47
2024-02-14T11:12:40.332Z,91554.09
2024-02-14T11:15:36.191Z,91560.88
2024-02-14T11:18:06.443Z,91559.06
2024-02-14T11:20:34.389Z,91555.16
2024-02-14T11:23:07.164Z,91556.16
2024-02-14T11:25:37.897Z,91564.00
2024-02-14T11:28:17.762Z,91561.84
2024-02-14T11:30:45.143Z,91561.34
2024-02-14T11:33:14.148Z,91573.56
2024-02-14T11:35:44.059Z,91571.22
2024-02-14T11:38:10.915Z,91569.69
2024-02-14T11:40:40.349Z,91571.94
2024-02-14T11:43:15.139Z,91575.50
2024-02-14T11:45:46.550Z,91571.22
2024-02-14T11:48:14.191Z,91577.22
2024-02-14T11:50:42.251Z,91571.78
2024-02-14T11:53:10.923Z,91573.81
2024-02-14T11:55:40.758Z,91580.53
2024-02-14T11:58:14.381Z,91570.44
2024-02-14T12:00:41.840Z,91568.13
2024-02-14T12:03:11.208Z,91571.00
2024-02-14T12:05:38.394Z,91561.38
2024-02-14T12:08:06.875Z,91566.97
2024-02-14T12:10:33.932Z,91576.53
2024-02-14T12:13:09.898Z,91573.69
2024-02-14T12:15:40.721Z,91583.06
2024-02-14T12:18:07.986Z,91577.41
2024-02-14T12:20:35.242Z,91581.56
2024-02-14T12:23:01.990Z,91590.41
2024-02-14T12:25:28.765Z,91590.06
2024-02-14T12:27:55.524Z,91585.75
2024-02-14T12:30:23.191Z,91582.66
2024-02-14T12:33:00.726Z,91580.59
2024-02-14T12:35:27.748Z,91589.94
2024-02-14T12:37:55.088Z,91575.44
2024-02-14T12:40:21.910Z,91585.81
2024-02-14T12:42:48.636Z,91586.34
2024-02-14T12:45:16.591Z,91584.25
2024-02-14T12:47:44.508Z,91584.75
2024-02-14T12:50:11.477Z,91587.88
2024-02-14T12:52:38.526Z,91592.28
2024-02-14T12:55:05.783Z,91589.19
2024-02-14T12:57:32.523Z,91590.75
2024-02-14T12:59:59.336Z,91591.53
2024-02-14T13:02:26.081Z,91593.63
2024-02-14T13:04:52.921Z,91588.41
2024-02-14T13:07:19.650Z,91597.22
2024-02-14T13:09:46.792Z,91596.19
2024-02-14T13:12:13.504Z,91596.44
2024-02-14T13:14:41.206Z,91606.56
2024-02-14T13:17:08.019Z,91599.81
2024-02-14T13:19:35.068Z,91600.09
2024-02-14T13:22:01.819Z,91599.31
2024-02-14T13:24:29.600Z,91601.59
2024-02-14T13:26:58.893Z,91609.19
2024-02-14T13:29:27.585Z,91598.25
2024-02-14T13:31:54.274Z,91600.06
2024-02-14T13:34:21.516Z,91596.19
2024-02-14T13:36:48.539Z,91601.06
2024-02-14T13:39:15.809Z,91600.25
2024-02-14T13:41:45.500Z,91587.31
2024-02-14T13:44:12.854Z,91601.13
2024-02-14T13:46:40.080Z,91600.34
2024-02-14T13:49:07.484Z,91606.03
2024-02-14T13:51:34.487Z,91600.88
2024-02-14T13:54:01.334Z,91601.91
2024-02-14T13:56:27.981Z,91600.13
2024-02-14T13:58:54.733Z,91606.06
2024-02-14T14:01:21.510Z,91607.13
2024-02-14T14:03:49.620Z,91607.63
2024-02-14T14:06:16.444Z,91608.16
2024-02-14T14:08:43.122Z,91611.28
2024-02-14T14:11:10.211Z,91606.59
2024-02-14T14:13:36.927Z,91613.84
2024-02-14T14:16:06.151Z,91613.88
2024-02-14T14:18:33.212Z,91615.41
2024-02-14T14:21:00.051Z,91624.22
2024-02-14T14:23:26.768Z,91621.13
2024-02-14T14:25:53.536Z,91622.44
2024-02-14T14:28:25.640Z,91619.56
2024-02-14T14:30:54.350Z,91621.63
2024-02-14T14:33:21.853Z,91626.31
2024-02-14T14:35:51.702Z,91625.28
2024-02-14T14:38:18.508Z,91632.03
2024-02-14T14:40:46.763Z,91629.44
2024-02-14T14:43:13.988Z,91631.75
2024-02-14T14:45:42.356Z,91628.16
2024-02-14T14:48:10.230Z,91634.88
2024-02-14T14:50:38.146Z,91636.19
2024-02-14T14:53:07.113Z,91642.19
2024-02-14T14:55:58.309Z,91649.66
2024-02-14T14:58:28.504Z,91645.00
2024-02-14T15:00:56.420Z,91648.94
2024-02-14T15:03:23.767Z,91652.06
2024-02-14T15:05:50.613Z,91654.13
2024-02-14T15:08:24.648Z,91655.41
2024-02-14T15:10:53.530Z,91658.53
2024-02-14T15:13:20.677Z,91661.16
2024-02-14T15:15:47.337Z,91660.63
2024-02-14T15:18:14.336Z,91659.06
2024-02-14T15:20:41.399Z,91661.16
2024-02-14T15:23:08.720Z,91662.16
2024-02-14T15:25:35.898Z,91655.44
2024-02-14T15:28:10.500Z,91668.41
2024-02-14T15:30:55.806Z,91665.81
2024-02-14T15:33:24.082Z,91668.94
2024-02-14T15:35:52.102Z,91677.72
2024-02-14T15:38:22.375Z,91676.69
2024-02-14T15:40:51.724Z,91678.78
2024-02-14T15:43:18.457Z,91689.44
2024-02-14T15:45:45.121Z,91681.41
2024-02-14T15:48:14.190Z,91686.59
2024-02-14T15:50:40.932Z,91691.81
2024-02-14T15:53:07.764Z,91695.41
2024-02-14T15:55:34.479Z,91689.22
2024-02-14T15:58:01.158Z,91693.59
2024-02-14T16:00:28.204Z,91699.84
2024-02-14T16:02:55.016Z,91697.50
2024-02-14T16:05:24.562Z,91699.06
2024-02-14T16:07:51.273Z,91703.72
2024-02-14T16:10:18.001Z,91707.38
2024-02-14T16:12:45.552Z,91713.47
2024-02-14T16:15:12.799Z,91711.38
2024-02-14T16:17:42.667Z,91710.94
2024-02-14T16:20:10.053Z,91715.38
2024-02-14T16:22:37.025Z,91714.06
2024-02-14T16:25:04.460Z,91716.38
2024-02-14T16:27:31.546Z,91727.59
2024-02-14T16:30:02.214Z,91718.03
2024-02-14T16:32:29.077Z,91723.53
2024-02-14T16:34:55.888Z,91730.22
2024-02-14T16:37:23.023Z,91733.09
2024-02-14T16:39:50.276Z,91729.22
2024-02-14T16:42:17.873Z,91734.94
2024-02-14T16:44:45.094Z,91737.00
2024-02-14T16:47:12.310Z,91736.22
2024-02-14T16:49:39.210Z,91732.34
2024-02-14T16:52:09.010Z,91743.78
2024-02-14T16:54:35.823Z,91742.47
2024-02-14T16:57:15.871Z,91740.66
2024-02-14T16:59:46.997Z,91747.13
2024-02-14T17:02:16.916Z,91741.34
2024-02-14T17:04:44.065Z,91740.03
2024-02-14T17:07:16.559Z,91738.72
2024-02-14T17:09:43.982Z,91737.47
2024-02-14T17:12:11.062Z,91733.31
2024-02-14T17:14:40.860Z,91740.59
2024-02-14T17:17:09.738Z,91749.44
2024-02-14T17:19:36.526Z,91740.13
2024-02-14T17:22:13.448Z,91741.41
2024-02-14T17:24:46.545Z,91740.63
2024-02-14T17:27:13.706Z,91747.31
2024-02-14T17:29:40.463Z,91750.91
2024-02-14T17:32:12.416Z,91749.94
2024-02-14T17:34:43.901Z,91750.91
2024-02-14T17:37:10.742Z,91755.63
2024-02-14T17:39:37.583Z,91761.59
2024-02-14T17:42:04.484Z,91751.41
2024-02-14T17:44:31.181Z,91748.38
2024-02-14T17:46:57.941Z,91748.91
2024-02-14T17:49:24.982Z,91749.09
2024-02-14T17:51:53.056Z,91753.59
2024-02-14T17:54:20.468Z,91754.03
2024-02-14T17:56:47.274Z,91751.97
2024-02-14T17:59:15.555Z,91748.75
2024-02-14T18:01:45.793Z,91758.16
2024-02-14T18:04:12.649Z,91753.31
2024-02-14T18:06:39.432Z,91763.44
2024-02-14T18:09:08.362Z,91759.31
2024-02-14T18:11:35.754Z,91765.31
2024-02-14T18:14:02.421Z,91765.31
2024-02-14T18:16:29.216Z,91769.41
2024-02-14T18:18:56.320Z,91773.84
2024-02-14T18:21:23.316Z,91770.22
2024-02-14T18:23:51.271Z,91774.38
2024-02-14T18:26:18.272Z,91770.97
2024-02-14T18:28:45.111Z,91782.66
2024-02-14T18:31:14.386Z,91784.66
2024-02-14T18:33:42.678Z,91780.44
2024-02-14T18:36:09.833Z,91787.78
2024-02-14T18:38:37.406Z,91789.41
2024-02-14T18:41:04.227Z,91785.00
2024-02-14T18:43:32.668Z,91793.81
2024-02-14T18:45:59.389Z,91798.81
2024-02-14T18:48:26.185Z,91796.72
2024-02-14T18:50:53.520Z,91800.41
2024-02-14T18:53:20.402Z,91795.22
2024-02-14T18:55:47.043Z,91797.72
2024-02-14T18:58:13.764Z,91798.72
2024-02-14T19:00:41.018Z,91802.41
2024-02-14T19:03:07.889Z,91811.25
2024-02-14T19:05:34.660Z,91809.22
2024-02-14T19:08:01.336Z,91806.69
2024-02-14T19:10:28.092Z,91804.53
2024-02-14T19:12:54.865Z,91803.94
2024-02-14T19:15:21.862Z,91798.81
2024-02-14T19:17:49.726Z,91801.41
2024-02-14T19:20:16.772Z,91800.84
2024-02-14T19:22:43.697Z,91804.09
2024-02-14T19:25:10.465Z,91810.75
2024-02-14T19:27:38.449Z,91807.75
2024-02-14T19:30:05.934Z,91797.97
2024-02-14T19:32:37.139Z,91804.88
2024-02-14T19:35:04.570Z,91797.13
2024-02-14T19:37:32.492Z,91797.44
2024-02-14T19:39:59.205Z,91794.47
2024-02-14T19:42:26.026Z,91800.22
2024-02-14T19:44:53.616Z,91805.97
2024-02-14T19:47:20.477Z,91805.94
2024-02-14T19:49:47.770Z,91812.78
2024-02-14T19:52:14.637Z,91798.41
2024-02-14T19:54:41.654Z,91795.06
2024-02-14T19:57:09.429Z,91797.66
2024-02-14T19:59:36.167Z,91798.66
2024-02-14T20:02:04.978Z,91804.16
2024-02-14T20:04:32.991Z,91799.22
2024-02-14T20:07:00.033Z,91792.75
2024-02-14T20:09:26.880Z,91788.38
2024-02-14T20:11:53.712Z,91793.06
2024-02-14T20:14:20.862Z,91794.81
2024-02-14T20:16:47.804Z,91796.16
2024-02-14T20:19:54.724Z,91799.78
2024-02-14T20:22:22.315Z,91803.41
2024-02-14T20:24:49.034Z,91804.00
2024-02-14T20:27:16.382Z,91798.25
2024-02-14T20:29:44.446Z,91795.88
2024-02-14T20:32:11.184Z,91797.72
2024-02-14T20:34:38.250Z,91792.31
2024-02-14T20:37:09.518Z,91790.97
2024-02-14T20:39:36.533Z,91786.75
2024-02-14T20:42:03.292Z,91789.06
2024-02-14T20:44:30.096Z,91787.78
2024-02-14T20:46:57.684Z,91782.56
2024-02-14T20:49:24.774Z,91782.59
2024-02-14T20:51:51.617Z,91777.44
2024-02-14T20:54:18.470Z,91779.09
2024-02-14T20:56:45.187Z,91796.63
2024-02-14T20:59:16.625Z,91787.31
2024-02-14T21:01:43.881Z,91778.78
2024-02-14T21:04:10.561Z,91773.56
2024-02-14T21:06:38.165Z,91781.69
2024-02-14T21:09:05.249Z,91784.13
2024-02-14T21:11:32.511Z,91782.13
2024-02-14T21:13:59.175Z,91777.53
2024-02-14T21:16:27.249Z,91788.03
2024-02-14T21:18:54.458Z,91785.97
2024-02-14T21:21:21.680Z,91781.91
2024-02-14T21:23:48.451Z,91777.28
2024-02-14T21:26:15.215Z,91780.31
2024-02-14T21:28:42.025Z,91789.22
2024-02-14T21:31:08.678Z,91786.19
2024-02-14T21:33:35.675Z,91787.59
2024-02-14T21:36:02.492Z,91781.19
2024-02-14T21:38:29.253Z,91784.31
2024-02-14T21:40:56.156Z,91779.22
2024-02-14T21:43:23.035Z,91779.41
2024-02-14T21:45:49.762Z,91775.28
2024-02-14T21:48:19.548Z,91778.84
2024-02-14T21:50:46.540Z,91769.38
2024-02-14T21:53:13.337Z,91771.69
2024-02-14T21:55:40.138Z,91777.59
2024-02-14T21:58:07.175Z,91781.28
2024-02-14T22:00:34.123Z,91783.41
2024-02-14T22:03:01.159Z,91788.16
2024-02-14T22:05:29.295Z,91783.06
2024-02-14T22:07:56.503Z,91786.72
2024-02-14T22:10:23.460Z,91781.22
2024-02-14T22:12:50.326Z,91783.34
2024-02-14T22:15:17.100Z,91785.41
2024-02-14T22:17:43.893Z,91783.00
2024-02-14T22:20:11.840Z,91789.00
2024-02-14T22:22:42.041Z,91787.16
2024-02-14T22:25:09.348Z,91792.94
2024-02-14T22:27:36.297Z,91791.34
2024-02-14T22:30:06.485Z,91796.94
2024-02-14T22:32:34.140Z,91801.09
2024-02-14T22:35:00.988Z,91802.72
2024-02-14T22:37:27.811Z,91800.44
2024-02-14T22:39:54.466Z,91795.38
2024-02-14T22:42:21.281Z,91803.31
2024-02-14T22:44:48.018Z,91802.78
2024-02-14T22:47:14.726Z,91793.66
2024-02-14T22:49:42.537Z,91795.50
2024-02-14T22:52:09.351Z,91791.84
2024-02-14T22:54:36.169Z,91799.75
2024-02-14T22:57:04.295Z,91784.31
2024-02-14T22:59:31.276Z,91783.59
2024-02-14T23:01:57.993Z,91787.38
2024-02-14T23:04:24.783Z,91783.75
2024-02-14T23:06:51.780Z,91784.56
2024-02-14T23:09:18.683Z,91790.03
2024-02-14T23:11:45.357Z,91787.56
2024-02-14T23:14:12.137Z,91781.28
2024-02-14T23:16:39.043Z,91790.81
2024-02-14T23:19:06.244Z,91785.91
2024-02-14T23:21:33.155Z,91792.81
2024-02-14T23:23:59.909Z,91788.78
2024-02-14T23:26:26.657Z,91773.31
2024-02-14T23:28:53.367Z,91787.94
2024-02-14T23:31:21.772Z,91780.41
2024-02-14T23:33:48.976Z,91779.53
2024-02-14T23:36:16.789Z,91784.25
2024-02-14T23:38:46.653Z,91782.13
2024-02-14T23:41:13.464Z,91793.78
2024-02-14T23:43:40.366Z,91780.59
2024-02-14T23:46:07.292Z,91786.53
2024-02-14T23:48:34.779Z,91788.03
2024-02-14T23:51:01.858Z,91791.97
2024-02-14T23:53:28.805Z,91802.34
2024-02-14T23:55:57.770Z,91789.16
2024-02-14T23:58:25.651Z,91796.44
